Time;durP1;ratioP1;P1;durP2;ratioP2;P2;SDS_P1;SDS_P2;PMS_P1;PMS_P2;Temp;Humidity;BMP_temperature;BMP_pressure;BME280_temperature;BME280_humidity;BME280_pressure;Samples;Min_cycle;Max_cycle;Signal;HPM_P1;HPM_P2
2021/04/24 00:00:51;;;;;;;10.38;5.93;;;6.60;97.20;;;;;;5094407;28;20047;-82
2021/04/24 00:03:17;;;;;;;8.32;5.20;;;6.60;97.30;;;;;;5107885;28;20028;-82
2021/04/24 00:05:44;;;;;;;10.50;5.68;;;6.60;97.30;;;;;;5090847;28;20039;-81
2021/04/24 00:08:12;;;;;;;9.75;5.53;;;6.50;97.40;;;;;;5091837;28;20065;-83
2021/04/24 00:10:40;;;;;;;9.40;6.18;;;6.50;97.40;;;;;;5090506;28;20044;-82
2021/04/24 00:13:08;;;;;;;9.93;5.80;;;6.50;97.40;;;;;;5107761;28;20405;-83
2021/04/24 00:15:35;;;;;;;9.77;5.18;;;6.50;97.50;;;;;;5112601;28;20031;-82
2021/04/24 00:18:00;;;;;;;12.48;6.45;;;6.50;97.60;;;;;;5115040;28;20023;-83
2021/04/24 00:20:26;;;;;;;8.93;5.35;;;6.50;97.70;;;;;;5116000;28;20056;-83
2021/04/24 00:22:53;;;;;;;9.73;5.70;;;6.50;97.70;;;;;;5116248;28;20384;-83
2021/04/24 00:25:19;;;;;;;8.18;5.82;;;6.40;97.70;;;;;;5116080;28;20461;-82
2021/04/24 00:27:46;;;;;;;10.43;5.72;;;6.40;97.70;;;;;;5114450;28;20061;-81
2021/04/24 00:30:13;;;;;;;9.73;6.05;;;6.40;97.80;;;;;;5114374;28;20024;-83
2021/04/24 00:32:39;;;;;;;9.38;5.63;;;6.40;97.80;;;;;;5115223;28;20118;-82
2021/04/24 00:35:07;;;;;;;8.00;4.70;;;6.30;97.80;;;;;;5113003;28;20058;-83
2021/04/24 00:37:32;;;;;;;10.32;5.93;;;6.30;97.90;;;;;;5114975;28;20374;-83
2021/04/24 00:39:58;;;;;;;7.82;5.18;;;6.30;97.90;;;;;;5115733;28;20027;-82
2021/04/24 00:42:24;;;;;;;10.05;5.53;;;6.30;98.00;;;;;;5115478;28;20121;-81
2021/04/24 00:44:52;;;;;;;12.52;5.50;;;6.30;98.10;;;;;;5113598;28;20051;-81
2021/04/24 00:47:19;;;;;;;11.40;5.50;;;6.30;98.20;;;;;;5115478;28;20023;-82
2021/04/24 00:49:45;;;;;;;9.73;5.97;;;6.30;98.20;;;;;;5112828;28;20175;-82
2021/04/24 00:52:11;;;;;;;8.15;5.40;;;6.30;98.30;;;;;;5114215;28;20074;-83
2021/04/24 00:54:37;;;;;;;8.60;5.03;;;6.30;98.30;;;;;;5113898;28;20126;-82
2021/04/24 00:57:03;;;;;;;8.40;5.35;;;6.20;98.30;;;;;;5114857;28;20524;-81
2021/04/24 00:59:29;;;;;;;8.60;5.25;;;6.20;98.30;;;;;;5113920;28;20097;-82
2021/04/24 01:01:55;;;;;;;8.65;5.88;;;6.20;98.40;;;;;;5113901;28;20044;-81
2021/04/24 01:04:21;;;;;;;9.50;5.57;;;6.20;98.50;;;;;;5113319;28;20027;-83
2021/04/24 01:06:48;;;;;;;9.82;5.60;;;6.20;98.50;;;;;;5113948;28;20023;-81
2021/04/24 01:09:14;;;;;;;9.57;5.03;;;6.20;98.50;;;;;;5115561;28;20103;-81
2021/04/24 01:11:39;;;;;;;9.43;5.30;;;6.10;98.50;;;;;;5116663;28;20043;-83
2021/04/24 01:14:07;;;;;;;9.73;4.90;;;6.10;98.50;;;;;;5114809;28;20092;-82
2021/04/24 01:16:32;;;;;;;7.00;4.65;;;6.00;98.60;;;;;;5114389;28;20031;-82
2021/04/24 01:18:58;;;;;;;9.63;5.00;;;6.10;98.60;;;;;;5113752;28;20031;-82
2021/04/24 01:21:27;;;;;;;10.43;5.20;;;6.00;98.60;;;;;;5113734;28;20112;-83
2021/04/24 01:23:53;;;;;;;10.07;4.97;;;6.00;98.70;;;;;;5113714;28;20027;-81
2021/04/24 01:26:19;;;;;;;9.13;5.78;;;6.00;98.70;;;;;;5113668;28;20405;-83
2021/04/24 01:28:45;;;;;;;9.80;5.28;;;5.90;98.70;;;;;;5114812;28;20530;-82
2021/04/24 01:31:12;;;;;;;9.73;5.70;;;5.90;98.80;;;;;;5114873;28;20032;-82
2021/04/24 01:33:37;;;;;;;12.23;5.65;;;5.90;98.90;;;;;;5113468;28;20023;-83
2021/04/24 01:36:04;;;;;;;9.77;5.30;;;5.90;99.00;;;;;;5114629;28;20114;-83
2021/04/24 01:38:31;;;;;;;10.27;5.55;;;5.80;99.00;;;;;;5114179;28;20514;-83
2021/04/24 01:40:57;;;;;;;10.50;5.75;;;5.80;99.10;;;;;;5114924;28;20028;-82
2021/04/24 01:43:23;;;;;;;12.10;6.70;;;5.80;99.10;;;;;;5113534;28;20148;-82
2021/04/24 01:45:48;;;;;;;10.60;6.28;;;5.80;99.20;;;;;;5114062;28;20023;-83
2021/04/24 01:48:14;;;;;;;10.35;6.28;;;5.80;99.30;;;;;;5118424;28;20037;-82
2021/04/24 01:50:43;;;;;;;8.98;5.28;;;5.70;99.40;;;;;;5122658;28;20020;-81
2021/04/24 01:53:12;;;;;;;11.07;5.53;;;5.70;99.40;;;;;;5116917;28;20110;-83
2021/04/24 01:55:40;;;;;;;12.95;6.25;;;5.70;99.50;;;;;;5115058;27;20019;-83
2021/04/24 01:58:09;;;;;;;11.70;6.78;;;5.70;99.60;;;;;;5126511;28;20019;-81
2021/04/24 02:00:43;;;;;;;9.63;5.55;;;5.70;99.60;;;;;;5113081;28;20054;-83
2021/04/24 02:03:10;;;;;;;;;;;5.70;99.60;;;;;;5115157;28;20023;-83
2021/04/24 02:05:36;;;;;;;12.55;6.38;;;5.60;99.60;;;;;;5114471;28;19904;-83
2021/04/24 02:08:07;;;;;;;10.50;5.65;;;5.60;99.70;;;;;;5114591;28;20024;-83
2021/04/24 02:10:34;;;;;;;8.38;5.93;;;5.60;99.70;;;;;;5112615;28;20062;-82
2021/04/24 02:13:04;;;;;;;11.63;6.05;;;5.50;99.80;;;;;;5114349;28;20098;-83
2021/04/24 02:15:30;;;;;;;10.50;6.15;;;5.50;99.80;;;;;;5112765;28;20069;-82
2021/04/24 02:17:56;;;;;;;11.32;6.22;;;5.50;99.90;;;;;;5112698;28;20027;-82
2021/04/24 02:20:22;;;;;;;11.05;6.05;;;5.50;99.90;;;;;;5112909;28;20470;-83
2021/04/24 02:22:48;;;;;;;12.57;6.20;;;5.50;99.90;;;;;;5113945;28;20026;-84
2021/04/24 02:25:16;;;;;;;8.90;5.65;;;5.50;99.90;;;;;;5114163;28;20362;-82
2021/04/24 02:27:42;;;;;;;11.43;6.18;;;5.50;99.90;;;;;;5112536;28;20073;-84
2021/04/24 02:30:11;;;;;;;14.68;6.55;;;5.50;99.90;;;;;;5112804;28;20019;-82
2021/04/24 02:32:38;;;;;;;11.48;6.20;;;5.50;99.90;;;;;;5112318;28;20066;-82
2021/04/24 02:35:06;;;;;;;9.50;5.82;;;5.40;99.90;;;;;;5112482;28;20111;-82
2021/04/24 02:37:32;;;;;;;13.48;5.53;;;5.40;99.90;;;;;;5112579;28;20031;-83
2021/04/24 02:39:58;;;;;;;13.50;5.90;;;5.40;99.90;;;;;;5112059;28;20020;-82
2021/04/24 02:42:28;;;;;;;10.98;6.20;;;5.40;99.90;;;;;;5112548;28;20408;-82
2021/04/24 02:44:58;;;;;;;9.48;5.95;;;5.40;99.90;;;;;;5112423;27;20027;-82
2021/04/24 02:47:25;;;;;;;10.48;6.38;;;5.40;99.90;;;;;;5112393;28;20045;-83
2021/04/24 02:49:51;;;;;;;10.55;5.57;;;5.30;99.90;;;;;;5111821;28;20012;-83
2021/04/24 02:52:17;;;;;;;10.15;5.65;;;5.30;99.90;;;;;;5112256;28;20511;-82
2021/04/24 02:54:43;;;;;;;10.98;5.43;;;5.30;99.90;;;;;;5112153;28;20026;-83
2021/04/24 02:57:08;;;;;;;9.48;5.75;;;5.30;99.90;;;;;;5112478;28;20019;-84
2021/04/24 02:59:34;;;;;;;8.15;4.70;;;5.30;99.90;;;;;;5112773;28;20054;-82
2021/04/24 03:02:01;;;;;;;8.77;5.65;;;5.30;99.90;;;;;;5113322;28;20063;-83
2021/04/24 03:04:27;;;;;;;8.82;4.95;;;5.30;99.90;;;;;;5113956;28;20020;-84
2021/04/24 03:06:52;;;;;;;9.40;5.25;;;5.20;99.90;;;;;;5112446;28;20439;-82
2021/04/24 03:09:18;;;;;;;9.02;5.32;;;5.20;99.90;;;;;;5113725;28;20015;-82
2021/04/24 03:11:45;;;;;;;9.98;5.40;;;5.20;99.90;;;;;;5112348;28;20043;-83
2021/04/24 03:14:11;;;;;;;12.27;6.60;;;5.10;99.90;;;;;;5112486;28;20385;-84
2021/04/24 03:16:37;;;;;;;12.65;5.97;;;5.10;99.90;;;;;;5113456;28;20023;-83
2021/04/24 03:19:04;;;;;;;11.32;5.68;;;5.10;99.90;;;;;;5112583;28;20012;-83
2021/04/24 03:21:30;;;;;;;9.93;6.00;;;5.10;99.90;;;;;;5113370;28;20374;-82
2021/04/24 03:23:55;;;;;;;10.38;5.00;;;5.10;99.90;;;;;;5111946;28;20022;-82
2021/04/24 03:26:22;;;;;;;9.40;5.30;;;5.10;99.90;;;;;;5113983;28;20136;-83
2021/04/24 03:28:48;;;;;;;8.60;5.07;;;5.00;99.90;;;;;;5112312;28;20019;-81
2021/04/24 03:31:14;;;;;;;10.27;5.13;;;5.00;99.90;;;;;;5114147;28;20450;-81
2021/04/24 03:33:40;;;;;;;9.48;5.53;;;5.00;99.90;;;;;;5095674;28;20382;-83
2021/04/24 03:36:07;;;;;;;9.50;4.90;;;5.00;99.90;;;;;;5113503;28;20402;-82
2021/04/24 03:38:34;;;;;;;9.73;4.55;;;4.90;99.90;;;;;;5113459;28;20418;-83
2021/04/24 03:41:00;;;;;;;9.13;4.80;;;4.90;99.90;;;;;;5112281;28;20393;-82
2021/04/24 03:43:25;;;;;;;7.20;3.97;;;4.90;99.90;;;;;;5115342;28;20069;-82
2021/04/24 03:45:51;;;;;;;10.05;4.75;;;4.90;99.90;;;;;;5123309;28;20027;-81
2021/04/24 03:48:17;;;;;;;8.38;4.75;;;4.80;99.90;;;;;;5126342;28;20079;-81
2021/04/24 03:50:43;;;;;;;8.70;4.68;;;4.80;99.90;;;;;;5117883;28;20031;-82
2021/04/24 03:53:10;;;;;;;9.57;5.10;;;4.80;99.90;;;;;;5115061;28;20032;-82
2021/04/24 03:55:35;;;;;;;10.27;5.05;;;4.80;99.90;;;;;;5113335;28;20076;-82
2021/04/24 03:58:01;;;;;;;10.10;4.97;;;4.70;99.90;;;;;;5114496;28;20028;-81
2021/04/24 04:00:30;;;;;;;10.90;4.88;;;4.70;99.90;;;;;;5112541;28;20024;-81
2021/04/24 04:02:59;;;;;;;9.75;5.07;;;4.70;99.90;;;;;;5112669;28;20044;-81
2021/04/24 04:05:27;;;;;;;8.70;4.43;;;4.60;99.90;;;;;;5111631;28;20473;-81
2021/04/24 04:07:55;;;;;;;7.75;4.50;;;4.60;99.90;;;;;;5112931;28;20039;-81
2021/04/24 04:10:22;;;;;;;9.48;5.32;;;4.60;99.90;;;;;;5113290;28;20374;-82
2021/04/24 04:12:48;;;;;;;8.63;4.82;;;4.60;99.90;;;;;;5098088;28;20035;-81
2021/04/24 04:15:16;;;;;;;10.60;5.63;;;4.50;99.90;;;;;;5116402;28;20020;-83
2021/04/24 04:17:43;;;;;;;8.40;5.30;;;4.50;99.90;;;;;;5114985;28;20023;-82
2021/04/24 04:20:10;;;;;;;10.68;5.70;;;4.50;99.90;;;;;;5115895;28;20027;-81
2021/04/24 04:22:37;;;;;;;9.52;5.22;;;4.50;99.90;;;;;;5115990;28;20028;-83
2021/04/24 04:25:04;;;;;;;9.90;5.65;;;4.40;99.90;;;;;;5115195;28;20030;-82
2021/04/24 04:27:30;;;;;;;9.52;4.68;;;4.40;99.90;;;;;;5116180;28;20065;-82
2021/04/24 04:29:55;;;;;;;11.40;5.50;;;4.40;99.90;;;;;;5114995;28;20057;-83
2021/04/24 04:32:21;;;;;;;7.57;4.75;;;4.30;99.90;;;;;;5114680;28;20149;-81
2021/04/24 04:34:46;;;;;;;11.23;5.55;;;4.30;99.90;;;;;;5114639;28;20030;-82
2021/04/24 04:37:13;;;;;;;9.98;4.90;;;4.30;99.90;;;;;;5114933;28;20035;-82
2021/04/24 04:39:39;;;;;;;10.57;5.78;;;4.30;99.90;;;;;;5115815;28;20023;-85
2021/04/24 04:42:05;;;;;;;9.23;5.40;;;4.30;99.90;;;;;;5114830;28;20027;-82
2021/04/24 04:44:31;;;;;;;11.38;5.57;;;4.40;99.90;;;;;;5114977;27;20494;-82
2021/04/24 04:46:57;;;;;;;9.38;5.20;;;4.40;99.90;;;;;;5115885;27;20024;-82
2021/04/24 04:49:22;;;;;;;8.80;5.15;;;4.50;99.90;;;;;;5115452;28;20063;-81
2021/04/24 04:51:48;;;;;;;9.60;5.15;;;4.60;99.90;;;;;;5115370;28;20074;-83
2021/04/24 04:54:14;;;;;;;10.30;5.53;;;4.60;99.90;;;;;;5114270;28;20342;-83
2021/04/24 04:56:39;;;;;;;9.13;5.35;;;4.70;99.90;;;;;;5114185;28;20073;-81
2021/04/24 04:59:05;;;;;;;10.70;5.32;;;4.80;99.90;;;;;;5113937;28;20031;-81
2021/04/24 05:01:31;;;;;;;11.10;5.80;;;4.90;99.90;;;;;;5115207;28;20093;-82
2021/04/24 05:03:56;;;;;;;11.10;6.13;;;5.00;99.90;;;;;;5114252;28;20023;-81
2021/04/24 05:06:22;;;;;;;11.98;5.88;;;5.00;99.90;;;;;;5114384;28;20461;-81
2021/04/24 05:08:47;;;;;;;9.38;5.45;;;5.10;99.90;;;;;;5114030;28;20431;-81
2021/04/24 05:11:13;;;;;;;9.88;5.68;;;5.10;99.90;;;;;;5113954;28;20039;-82
2021/04/24 05:13:38;;;;;;;13.15;5.63;;;5.10;99.90;;;;;;5115271;28;20026;-81
2021/04/24 05:16:05;;;;;;;8.77;4.82;;;5.20;99.90;;;;;;5113710;28;20097;-81
2021/04/24 05:18:31;;;;;;;8.65;4.35;;;5.30;99.90;;;;;;5114035;28;20027;-81
2021/04/24 05:20:57;;;;;;;8.00;4.32;;;5.30;99.90;;;;;;5114735;28;20123;-81
2021/04/24 05:23:24;;;;;;;8.25;4.07;;;5.30;99.90;;;;;;5114821;28;20031;-81
2021/04/24 05:25:49;;;;;;;6.18;3.65;;;5.50;99.90;;;;;;5114899;28;20023;-83
2021/04/24 05:28:15;;;;;;;9.25;4.90;;;5.50;99.90;;;;;;5113603;28;20350;-82
2021/04/24 05:30:41;;;;;;;6.63;3.70;;;5.50;99.90;;;;;;5114730;28;20024;-82
2021/04/24 05:33:06;;;;;;;7.93;3.50;;;5.60;99.90;;;;;;5114890;28;20051;-81
2021/04/24 05:35:32;;;;;;;7.10;3.53;;;5.60;99.90;;;;;;5114643;28;20049;-82
2021/04/24 05:37:58;;;;;;;5.95;3.45;;;5.70;99.90;;;;;;5113534;27;20522;-82
2021/04/24 05:40:23;;;;;;;8.00;3.78;;;5.80;99.90;;;;;;5113166;28;20076;-82
2021/04/24 05:42:49;;;;;;;7.85;3.58;;;5.80;99.90;;;;;;5113026;28;20068;-83
2021/04/24 05:45:15;;;;;;;6.95;3.60;;;5.90;99.90;;;;;;5114195;28;20404;-82
2021/04/24 05:47:49;;;;;;;6.25;3.55;;;6.00;99.90;;;;;;5114701;28;20023;-82
2021/04/24 05:50:17;;;;;;;6.15;3.30;;;6.10;99.90;;;;;;5111981;28;20083;-81
2021/04/24 05:52:43;;;;;;;6.85;3.45;;;6.10;99.90;;;;;;5094015;28;20139;-83
2021/04/24 05:55:09;;;;;;;5.68;3.08;;;6.30;99.90;;;;;;5092858;28;20050;-82
2021/04/24 05:57:36;;;;;;;6.28;3.35;;;6.30;99.90;;;;;;5093762;28;20020;-82
2021/04/24 06:00:07;;;;;;;6.28;3.45;;;6.50;99.90;;;;;;5094229;28;20031;-83
2021/04/24 06:02:34;;;;;;;7.40;3.55;;;6.60;99.90;;;;;;5093378;28;20060;-83
2021/04/24 06:05:00;;;;;;;6.90;3.05;;;6.70;99.90;;;;;;5092236;28;20059;-84
2021/04/24 06:07:26;;;;;;;6.50;3.40;;;6.70;99.90;;;;;;5088444;28;20055;-84
2021/04/24 06:09:51;;;;;;;8.00;3.75;;;6.80;99.90;;;;;;5090660;28;20020;-84
2021/04/24 06:12:17;;;;;;;7.72;3.63;;;6.90;99.90;;;;;;5089258;28;20371;-82
2021/04/24 06:14:42;;;;;;;6.90;3.55;;;7.00;99.90;;;;;;5089607;28;20050;-81
2021/04/24 06:17:08;;;;;;;7.90;3.28;;;7.00;99.90;;;;;;5090407;28;20429;-83
2021/04/24 06:19:33;;;;;;;11.15;3.85;;;7.00;99.90;;;;;;5088704;28;20028;-82
2021/04/24 06:21:59;;;;;;;8.07;3.83;;;7.00;99.90;;;;;;5089077;28;20028;-83
2021/04/24 06:24:24;;;;;;;7.80;3.42;;;7.10;99.90;;;;;;5094288;28;20418;-83
2021/04/24 06:26:51;;;;;;;7.28;4.03;;;7.10;99.90;;;;;;5097543;28;20027;-83
2021/04/24 06:29:17;;;;;;;6.18;3.63;;;7.20;99.90;;;;;;5100248;28;20081;-82
2021/04/24 06:31:42;;;;;;;6.95;3.40;;;7.20;99.90;;;;;;5101228;28;20856;-83
2021/04/24 06:34:08;;;;;;;9.15;3.58;;;7.30;99.90;;;;;;5095248;28;20107;-81
2021/04/24 06:36:33;;;;;;;7.40;3.70;;;7.30;99.90;;;;;;5097936;28;20015;-81
2021/04/24 06:39:04;;;;;;;8.45;3.85;;;7.40;99.90;;;;;;5102397;28;20024;-82
2021/04/24 06:41:30;;;;;;;8.85;4.40;;;7.40;99.90;;;;;;5109887;28;20035;-84
2021/04/24 06:43:56;;;;;;;9.75;4.30;;;7.50;99.90;;;;;;5110337;28;20020;-83
2021/04/24 06:46:22;;;;;;;7.80;3.53;;;7.50;99.90;;;;;;5110362;28;20418;-83
2021/04/24 06:48:47;;;;;;;7.32;4.18;;;7.60;99.90;;;;;;5110152;28;20023;-82
2021/04/24 06:51:13;;;;;;;6.57;3.70;;;7.70;99.90;;;;;;5107557;28;20040;-84
2021/04/24 06:53:40;;;;;;;7.45;3.83;;;7.80;99.90;;;;;;5100217;28;20077;-84
2021/04/24 06:56:06;;;;;;;9.35;4.53;;;7.80;99.90;;;;;;5097004;28;20020;-83
2021/04/24 06:58:32;;;;;;;10.65;5.20;;;7.90;99.90;;;;;;5099596;28;20020;-85
2021/04/24 07:00:58;;;;;;;8.43;3.92;;;7.90;99.90;;;;;;5099327;28;20039;-84
2021/04/24 07:03:24;;;;;;;10.43;4.20;;;8.00;99.90;;;;;;5107237;28;20493;-83
2021/04/24 07:05:51;;;;;;;9.55;4.25;;;8.10;99.90;;;;;;5109577;28;20063;-87
2021/04/24 07:08:16;;;;;;;7.20;4.10;;;8.10;99.90;;;;;;5109729;28;20141;-88
2021/04/24 07:10:42;;;;;;;6.93;3.75;;;8.30;99.90;;;;;;5109163;28;20126;-86
2021/04/24 07:13:08;;;;;;;11.65;4.32;;;8.30;99.80;;;;;;5110322;28;20639;-87
2021/04/24 07:15:33;;;;;;;9.75;4.30;;;8.30;99.50;;;;;;5112071;28;20024;-87
2021/04/24 07:17:59;;;;;;;6.93;3.42;;;8.30;99.40;;;;;;5113098;28;20024;-84
2021/04/24 07:20:24;;;;;;;9.75;3.67;;;8.30;99.30;;;;;;5109429;28;20027;-83
2021/04/24 07:22:50;;;;;;;8.77;3.97;;;8.30;99.20;;;;;;5109642;28;20054;-82
2021/04/24 07:25:16;;;;;;;7.70;3.95;;;8.40;99.40;;;;;;5108241;28;20053;-85
2021/04/24 07:27:42;;;;;;;6.18;3.22;;;8.40;99.00;;;;;;5109350;28;20020;-84
2021/04/24 07:30:10;;;;;;;6.80;3.85;;;8.40;99.00;;;;;;5108506;28;20026;-84
2021/04/24 07:32:37;;;;;;;8.10;3.22;;;8.50;98.70;;;;;;5109561;28;20122;-84
2021/04/24 07:35:05;;;;;;;6.68;3.00;;;8.60;98.60;;;;;;5110067;28;20020;-82
2021/04/24 07:37:30;;;;;;;5.63;2.75;;;8.60;98.40;;;;;;5107251;28;20875;-87
2021/04/24 07:39:56;;;;;;;6.00;2.85;;;8.60;98.40;;;;;;5096843;28;20362;-87
2021/04/24 07:42:21;;;;;;;4.50;2.20;;;8.70;98.30;;;;;;5099413;28;20501;-86
2021/04/24 07:44:47;;;;;;;5.75;2.63;;;8.80;98.20;;;;;;5099304;28;20016;-83
2021/04/24 07:47:13;;;;;;;4.60;2.55;;;8.90;97.50;;;;;;5104037;28;20023;-85
2021/04/24 07:49:39;;;;;;;5.07;2.22;;;8.90;97.50;;;;;;5102488;28;20426;-86
2021/04/24 07:52:06;;;;;;;6.38;2.58;;;8.90;97.20;;;;;;5105739;28;20035;-87
2021/04/24 07:54:34;;;;;;;4.10;2.15;;;9.00;97.10;;;;;;5106452;28;20023;-83
2021/04/24 07:57:00;;;;;;;5.00;2.50;;;9.00;96.90;;;;;;5096341;28;20105;-84
2021/04/24 07:59:26;;;;;;;4.07;2.58;;;9.10;96.60;;;;;;5094469;28;20390;-85
2021/04/24 08:01:52;;;;;;;3.92;2.15;;;9.10;96.60;;;;;;5095069;28;20075;-83
2021/04/24 08:04:18;;;;;;;5.85;2.67;;;9.20;96.60;;;;;;5095122;28;20031;-84
2021/04/24 08:06:44;;;;;;;7.18;2.72;;;9.30;96.20;;;;;;5095036;28;20390;-83
2021/04/24 08:09:09;;;;;;;6.15;2.15;;;9.30;95.70;;;;;;5093786;28;20119;-83
2021/04/24 08:11:36;;;;;;;5.28;2.90;;;9.30;95.60;;;;;;5097555;28;20359;-86
2021/04/24 08:14:02;;;;;;;6.85;3.13;;;9.40;95.40;;;;;;5115191;28;20029;-86
2021/04/24 08:16:27;;;;;;;5.93;2.60;;;9.50;95.20;;;;;;5117645;28;20087;-83
2021/04/24 08:18:53;;;;;;;6.28;3.10;;;9.60;94.50;;;;;;5112569;28;20024;-84
2021/04/24 08:21:20;;;;;;;5.05;2.28;;;9.60;94.20;;;;;;5095231;28;20058;-86
2021/04/24 08:23:46;;;;;;;6.20;2.20;;;9.70;94.20;;;;;;5094689;28;20023;-83
2021/04/24 08:26:11;;;;;;;5.78;2.08;;;9.80;94.30;;;;;;5095973;28;20150;-83
2021/04/24 08:28:37;;;;;;;4.70;2.25;;;10.00;94.20;;;;;;5096146;28;20058;-84
2021/04/24 08:31:03;;;;;;;4.45;2.08;;;10.20;93.50;;;;;;5094825;28;20032;-84
2021/04/24 08:33:28;;;;;;;3.58;2.00;;;10.30;93.60;;;;;;5094764;28;20496;-82
2021/04/24 08:35:54;;;;;;;5.03;2.13;;;10.30;93.60;;;;;;5094329;28;20028;-83
2021/04/24 08:38:20;;;;;;;3.13;1.73;;;10.30;93.20;;;;;;5095967;28;20531;-82
2021/04/24 08:40:46;;;;;;;3.65;1.52;;;10.40;93.20;;;;;;5094468;28;20046;-83
2021/04/24 08:43:13;;;;;;;4.80;1.75;;;10.50;92.80;;;;;;5095574;28;20065;-83
2021/04/24 08:45:42;;;;;;;4.30;1.80;;;10.50;92.20;;;;;;5094455;28;20020;-84
2021/04/24 08:48:08;;;;;;;4.35;1.90;;;10.60;92.10;;;;;;5094298;28;20024;-87
2021/04/24 08:50:35;;;;;;;4.80;1.30;;;10.70;91.70;;;;;;5094684;28;20024;-88
2021/04/24 08:53:01;;;;;;;3.38;1.88;;;10.90;91.70;;;;;;5094875;28;20282;-86
2021/04/24 08:55:34;;;;;;;4.03;2.00;;;11.00;91.20;;;;;;5095619;28;20016;-83
2021/04/24 08:58:02;;;;;;;3.78;1.75;;;11.10;91.30;;;;;;5095481;28;20028;-84
2021/04/24 09:00:30;;;;;;;3.20;1.70;;;11.20;91.10;;;;;;5095409;28;20017;-84
2021/04/24 09:02:56;;;;;;;4.35;1.85;;;11.20;90.40;;;;;;5094014;28;20044;-84
2021/04/24 09:05:24;;;;;;;5.55;2.58;;;11.30;90.30;;;;;;5095640;28;20059;-85
2021/04/24 09:08:07;;;;;;;3.53;2.03;;;11.30;88.80;;;;;;5094245;28;20024;-84
2021/04/24 09:10:38;;;;;;;4.95;2.25;;;11.40;89.40;;;;;;5094453;28;20043;-86
2021/04/24 09:13:05;;;;;;;3.65;1.60;;;11.50;88.40;;;;;;5095459;28;20048;-85
2021/04/24 09:15:31;;;;;;;5.80;2.28;;;11.60;88.80;;;;;;5101579;28;20012;-84
2021/04/24 09:18:03;;;;;;;5.47;2.33;;;11.70;88.40;;;;;;5096224;28;20054;-84
2021/04/24 09:20:32;;;;;;;5.25;2.10;;;11.80;87.60;;;;;;5098876;28;20541;-82
2021/04/24 09:22:57;;;;;;;5.10;1.80;;;11.90;87.10;;;;;;5095518;28;20078;-84
2021/04/24 09:25:32;;;;;;;3.03;1.67;;;12.10;87.30;;;;;;5093679;28;20473;-84
2021/04/24 09:27:58;;;;;;;3.38;1.60;;;12.40;86.90;;;;;;5095342;28;20024;-83
2021/04/24 09:30:31;;;;;;;5.32;2.20;;;12.50;86.40;;;;;;5094582;28;20539;-83
2021/04/24 09:33:09;;;;;;;2.97;1.63;;;12.70;85.50;;;;;;5094588;28;20043;-82
2021/04/24 09:35:52;;;;;;;3.92;1.60;;;12.90;86.50;;;;;;5093417;28;20099;-83
2021/04/24 09:38:25;;;;;;;2.08;1.50;;;13.60;85.70;;;;;;5093498;28;20040;-85
2021/04/24 09:41:06;;;;;;;2.42;1.50;;;14.40;83.50;;;;;;5093103;28;20035;-83
2021/04/24 09:44:09;;;;;;;5.13;1.45;;;15.00;82.00;;;;;;5093212;28;20023;-83
2021/04/24 09:46:45;;;;;;;2.97;1.15;;;15.90;81.40;;;;;;5092224;28;20506;-84
2021/04/24 09:49:22;;;;;;;3.35;1.40;;;16.50;79.60;;;;;;5093348;28;20027;-83
2021/04/24 09:51:56;;;;;;;3.10;1.23;;;17.10;77.30;;;;;;5092700;28;20505;-85
2021/04/24 09:54:36;;;;;;;2.65;1.10;;;17.80;76.70;;;;;;5092762;28;20016;-82
2021/04/24 09:57:08;;;;;;;3.83;1.85;;;18.80;75.20;;;;;;5094047;28;20027;-81
2021/04/24 09:59:51;;;;;;;6.43;1.77;;;19.30;72.20;;;;;;5092680;28;20039;-83
2021/04/24 10:02:27;;;;;;;;;;;19.60;69.00;;;;;;5092911;28;20071;-82
2021/04/24 10:05:06;;;;;;;3.38;1.23;;;19.70;68.30;;;;;;5092653;28;19908;-83
2021/04/24 10:07:37;;;;;;;2.85;1.45;;;20.10;68.30;;;;;;5092022;28;20422;-81
2021/04/24 10:10:05;;;;;;;2.38;1.73;;;20.10;67.30;;;;;;5093591;28;20028;-83
2021/04/24 10:12:31;;;;;;;3.60;1.73;;;20.30;66.90;;;;;;5091856;28;20466;-83
2021/04/24 10:14:57;;;;;;;1.90;1.40;;;20.50;64.80;;;;;;5092684;28;20119;-84
2021/04/24 10:17:22;;;;;;;2.47;1.33;;;20.70;62.10;;;;;;5093533;28;20482;-84
2021/04/24 10:19:49;;;;;;;2.60;1.33;;;20.40;61.60;;;;;;5075591;28;20020;-82
2021/04/24 10:22:17;;;;;;;3.00;1.67;;;20.40;60.70;;;;;;5093330;28;20538;-82
2021/04/24 10:24:43;;;;;;;3.38;1.33;;;20.30;60.50;;;;;;5092110;28;20122;-82
2021/04/24 10:27:11;;;;;;;2.03;1.25;;;20.30;60.20;;;;;;5092634;28;20533;-83
2021/04/24 10:29:37;;;;;;;1.88;1.25;;;20.60;59.90;;;;;;5092516;28;20045;-83
2021/04/24 10:32:03;;;;;;;1.75;1.10;;;20.90;59.70;;;;;;5092867;28;20036;-86
2021/04/24 10:34:30;;;;;;;3.35;1.40;;;21.30;59.00;;;;;;5094097;28;20162;-85
2021/04/24 10:36:56;;;;;;;3.33;1.60;;;21.40;57.70;;;;;;5076277;28;20020;-85
2021/04/24 10:39:26;;;;;;;1.85;1.30;;;21.40;57.40;;;;;;5093241;28;20020;-86
2021/04/24 10:41:54;;;;;;;4.03;2.20;;;21.50;57.60;;;;;;5094341;28;20067;-86
2021/04/24 10:44:21;;;;;;;3.20;1.55;;;21.50;54.70;;;;;;5107886;28;20031;-86
2021/04/24 10:46:51;;;;;;;3.15;1.70;;;21.10;54.40;;;;;;5114729;28;20046;-85
2021/04/24 10:49:17;;;;;;;2.70;1.50;;;20.80;53.80;;;;;;5110887;28;20362;-84
2021/04/24 10:51:55;;;;;;;3.08;1.17;;;20.90;53.30;;;;;;5103885;28;20047;-82
2021/04/24 10:54:23;;;;;;;3.25;1.48;;;20.90;51.00;;;;;;5107579;28;20486;-83
2021/04/24 10:56:50;;;;;;;2.17;1.50;;;20.90;50.80;;;;;;5105039;28;20028;-83
2021/04/24 10:59:25;;;;;;;3.58;1.70;;;21.00;50.30;;;;;;5101867;28;20412;-84
2021/04/24 11:02:06;;;;;;;3.28;1.40;;;20.90;50.40;;;;;;5098216;28;20131;-84
2021/04/24 11:04:39;;;;;;;2.85;1.60;;;20.60;50.60;;;;;;5101759;28;20032;-85
2021/04/24 11:07:34;;;;;;;3.10;1.33;;;20.00;51.40;;;;;;5101395;28;20035;-83
2021/04/24 11:10:26;;;;;;;4.05;1.50;;;19.40;51.50;;;;;;5089776;28;20066;-85
2021/04/24 11:12:53;;;;;;;4.93;1.60;;;18.80;52.90;;;;;;5096839;28;20243;-82
2021/04/24 11:15:21;;;;;;;3.42;2.00;;;18.50;53.80;;;;;;5105773;28;20016;-85
2021/04/24 11:17:51;;;;;;;4.10;1.90;;;18.00;54.30;;;;;;5098535;28;20111;-84
2021/04/24 11:20:57;;;;;;;4.05;1.90;;;17.80;55.20;;;;;;5094951;28;20107;-83
2021/04/24 11:23:35;;;;;;;4.82;1.70;;;17.60;55.40;;;;;;5094733;28;20059;-84
2021/04/24 11:26:11;;;;;;;2.95;1.58;;;17.60;55.80;;;;;;5095378;28;20071;-85
2021/04/24 11:28:59;;;;;;;3.40;2.10;;;17.70;56.10;;;;;;5095655;28;20050;-84
2021/04/24 11:31:47;;;;;;;6.78;2.67;;;17.60;56.00;;;;;;5096107;28;20021;-83
2021/04/24 11:34:27;;;;;;;5.43;2.50;;;17.50;55.40;;;;;;5097271;28;20035;-86
2021/04/24 11:37:14;;;;;;;4.75;2.55;;;17.40;56.20;;;;;;5097072;28;20035;-84
2021/04/24 11:40:14;;;;;;;4.05;2.08;;;17.50;55.60;;;;;;5097109;28;20051;-84
2021/04/24 11:42:58;;;;;;;4.68;2.10;;;17.70;55.20;;;;;;5096188;28;20028;-81
2021/04/24 11:45:51;;;;;;;4.03;2.15;;;17.80;55.90;;;;;;5097613;28;20024;-80
2021/04/24 11:48:49;;;;;;;3.55;2.05;;;18.00;55.90;;;;;;5094311;28;20032;-83
2021/04/24 11:51:37;;;;;;;4.93;2.15;;;18.20;55.60;;;;;;5095929;28;20032;-83
2021/04/24 11:54:09;;;;;;;3.53;2.20;;;18.40;55.20;;;;;;5097171;28;20123;-84
2021/04/24 11:56:36;;;;;;;4.53;2.00;;;18.30;55.40;;;;;;5098584;28;20035;-84
2021/04/24 11:59:02;;;;;;;4.25;2.08;;;18.40;56.20;;;;;;5096787;28;20275;-83
2021/04/24 12:01:28;;;;;;;4.25;2.70;;;18.70;55.80;;;;;;5098948;28;20044;-83
2021/04/24 12:03:55;;;;;;;3.88;2.90;;;18.70;54.90;;;;;;5097288;28;20012;-84
2021/04/24 12:06:39;;;;;;;4.68;2.72;;;18.50;54.50;;;;;;5078831;28;20541;-85
2021/04/24 12:09:11;;;;;;;;;;;18.00;55.00;;;;;;5095859;28;20379;-85
2021/04/24 12:11:38;;;;;;;7.68;3.10;;;17.70;55.20;;;;;;5096749;28;19926;-86
2021/04/24 12:14:03;;;;;;;5.97;3.55;;;17.40;56.00;;;;;;5095111;28;20020;-84
2021/04/24 12:16:39;;;;;;;5.60;3.00;;;17.00;57.40;;;;;;5096198;28;20028;-85
2021/04/24 12:19:25;;;;;;;6.60;3.10;;;16.80;58.20;;;;;;5096595;28;20103;-84
2021/04/24 12:22:05;;;;;;;5.63;2.63;;;16.70;58.40;;;;;;5095184;28;20079;-84
2021/04/24 12:24:33;;;;;;;4.95;3.13;;;16.60;59.00;;;;;;5094922;28;20027;-85
2021/04/24 12:26:59;;;;;;;5.25;2.42;;;16.50;59.10;;;;;;5096835;28;20091;-84
2021/04/24 12:29:44;;;;;;;5.53;2.60;;;16.40;59.90;;;;;;5094965;28;20047;-85
2021/04/24 12:32:14;;;;;;;4.40;2.75;;;16.30;60.80;;;;;;5094517;28;20028;-84
2021/04/24 12:34:41;;;;;;;5.55;2.95;;;16.30;60.60;;;;;;5095214;28;20134;-84
2021/04/24 12:37:09;;;;;;;5.90;3.00;;;16.40;61.10;;;;;;5096288;28;20024;-83
2021/04/24 12:39:36;;;;;;;6.28;3.42;;;16.40;61.30;;;;;;5099873;28;20081;-80
2021/04/24 12:42:03;;;;;;;5.15;3.15;;;16.40;61.40;;;;;;5104426;28;20107;-82
2021/04/24 12:44:33;;;;;;;4.60;2.65;;;16.30;61.60;;;;;;5102640;28;20024;-80
2021/04/24 12:47:00;;;;;;;5.35;2.70;;;16.20;61.90;;;;;;5094935;28;20024;-83
2021/04/24 12:49:26;;;;;;;6.28;3.35;;;16.10;62.10;;;;;;5095658;28;20024;-84
2021/04/24 12:52:07;;;;;;;7.57;3.45;;;15.90;62.80;;;;;;5093044;28;20107;-82
2021/04/24 12:54:33;;;;;;;6.88;3.25;;;15.80;62.80;;;;;;5089731;28;20546;-82
2021/04/24 12:57:11;;;;;;;5.43;2.97;;;15.80;63.30;;;;;;5099461;28;20031;-83
2021/04/24 12:59:37;;;;;;;6.32;3.42;;;15.80;63.40;;;;;;5103718;28;20049;-86